createdAt,value
2023-03-26T00:02:00.575Z,98647.72
2023-03-26T00:08:18.548Z,98664.53
2023-03-26T00:11:30.059Z,98661.50
2023-03-26T00:14:32.614Z,98653.28
2023-03-26T00:17:34.600Z,98644.47
2023-03-26T00:20:40.606Z,98650.97
2023-03-26T00:23:43.187Z,98647.66
2023-03-26T00:26:53.169Z,98638.47
2023-03-26T00:30:03.589Z,98638.34
2023-03-26T00:33:07.731Z,98635.44
2023-03-26T00:36:14.690Z,98629.47
2023-03-26T00:39:17.740Z,98636.56
2023-03-26T00:42:29.351Z,98623.41
2023-03-26T00:45:32.976Z,98629.47
2023-03-26T00:48:44.338Z,98628.75
2023-03-26T00:51:46.953Z,98624.31
2023-03-26T00:54:52.038Z,98623.09
2023-03-26T00:57:55.553Z,98615.50
2023-03-26T01:01:03.227Z,98611.75
2023-03-26T01:04:40.319Z,98606.50
2023-03-26T01:07:50.102Z,98605.53
2023-03-26T01:10:53.740Z,98606.94
2023-03-26T01:14:25.774Z,98600.06
2023-03-26T01:17:39.751Z,98592.78
2023-03-26T01:20:49.677Z,98585.16
2023-03-26T01:24:05.707Z,98568.03
2023-03-26T01:31:10.282Z,98536.03
2023-03-26T01:34:18.339Z,98550.31
2023-03-26T01:37:41.347Z,98541.25
2023-03-26T01:41:07.515Z,98540.94
2023-03-26T01:44:40.664Z,98531.13
2023-03-26T01:47:44.140Z,98524.22
2023-03-26T01:54:07.887Z,98508.38
2023-03-26T01:57:20.320Z,98487.28
2023-03-26T02:00:32.193Z,98466.97
2023-03-26T02:03:46.999Z,98455.47
2023-03-26T02:07:06.083Z,98443.25
2023-03-26T02:10:28.767Z,98433.59
2023-03-26T02:13:31.872Z,98442.25
2023-03-26T02:16:39.563Z,98420.34
2023-03-26T02:19:42.792Z,98403.84
2023-03-26T02:22:45.941Z,98434.50
2023-03-26T02:25:49.651Z,98407.91
2023-03-26T02:28:51.498Z,98415.09
2023-03-26T02:31:53.869Z,98397.91
2023-03-26T02:38:14.406Z,98381.72
2023-03-26T02:41:17.157Z,98362.84
2023-03-26T02:44:42.465Z,98382.84
2023-03-26T02:48:10.164Z,98363.84
2023-03-26T02:51:18.332Z,98373.88
2023-03-26T02:54:42.307Z,98374.44
2023-03-26T02:57:52.914Z,98365.00
2023-03-26T03:01:03.206Z,98358.50
2023-03-26T03:04:12.247Z,98332.66
2023-03-26T03:07:17.256Z,98357.47
2023-03-26T03:10:21.851Z,98352.56
2023-03-26T03:14:08.276Z,98323.34
2023-03-26T03:17:10.804Z,98328.72
2023-03-26T03:20:25.719Z,98321.97
2023-03-26T03:23:33.151Z,98317.06
2023-03-26T03:26:50.248Z,98326.69
2023-03-26T03:30:08.955Z,98312.78
2023-03-26T03:33:41.829Z,98295.50
2023-03-26T03:36:48.352Z,98303.13
2023-03-26T03:40:05.518Z,98290.66
2023-03-26T03:43:12.104Z,98296.50
2023-03-26T03:49:40.795Z,98269.88
2023-03-26T03:52:42.480Z,98277.09
2023-03-26T03:55:54.362Z,98265.38
2023-03-26T03:59:01.894Z,98258.44
2023-03-26T04:02:08.901Z,98257.63
2023-03-26T04:05:20.316Z,98256.63
2023-03-26T04:08:25.052Z,98244.97
2023-03-26T04:11:31.136Z,98229.78
2023-03-26T04:15:07.915Z,98227.53
2023-03-26T04:18:10.632Z,98218.22
2023-03-26T04:21:15.890Z,98214.75
2023-03-26T04:24:19.678Z,98216.41
2023-03-26T04:27:43.413Z,98211.25
2023-03-26T04:31:24.250Z,98207.09
2023-03-26T04:37:57.048Z,98193.75
2023-03-26T04:41:11.370Z,98191.72
2023-03-26T04:44:22.592Z,98173.53
2023-03-26T04:47:46.368Z,98165.88
2023-03-26T04:50:48.525Z,98149.50
2023-03-26T04:53:58.226Z,98127.19
2023-03-26T04:57:17.618Z,98121.91
2023-03-26T05:00:38.899Z,98105.69
2023-03-26T05:03:46.693Z,98112.22
2023-03-26T05:06:50.491Z,98113.78
2023-03-26T05:09:57.994Z,98110.66
2023-03-26T05:13:33.064Z,98081.69
2023-03-26T05:16:41.419Z,98076.16
2023-03-26T05:19:43.899Z,98077.19
2023-03-26T05:22:45.607Z,98061.88
2023-03-26T05:26:04.096Z,98080.53
2023-03-26T05:29:05.718Z,98060.19
2023-03-26T05:32:12.112Z,98047.66
2023-03-26T05:35:16.997Z,98051.78
2023-03-26T05:38:19.222Z,98052.09
2023-03-26T05:41:47.082Z,98050.94
2023-03-26T05:44:56.125Z,98044.03
2023-03-26T05:48:02.072Z,98023.63
2023-03-26T05:51:04.796Z,98014.25
2023-03-26T05:54:07.511Z,98011.72
2023-03-26T05:57:41.420Z,97984.03
2023-03-26T06:01:22.675Z,98006.25
2023-03-26T06:04:42.984Z,97978.47
2023-03-26T06:08:07.761Z,97970.69
2023-03-26T06:11:16.666Z,97978.50
2023-03-26T06:14:19.082Z,97973.47
2023-03-26T06:18:00.217Z,97960.13
2023-03-26T06:21:37.190Z,97956.59
2023-03-26T06:24:58.531Z,97945.00
2023-03-26T06:28:17.337Z,97951.72
2023-03-26T06:31:43.439Z,97947.44
2023-03-26T06:35:09.476Z,97941.78
2023-03-26T06:38:11.977Z,97937.63
2023-03-26T06:41:16.885Z,97918.69
2023-03-26T06:44:31.787Z,97920.25
2023-03-26T06:47:52.242Z,97927.56
2023-03-26T06:50:54.502Z,97944.16
2023-03-26T06:54:17.353Z,97936.53
2023-03-26T06:57:39.457Z,97930.88
2023-03-26T07:01:02.386Z,97933.13
2023-03-26T07:04:25.947Z,97927.13
2023-03-26T07:07:48.316Z,97925.22
2023-03-26T07:11:08.708Z,97924.16
2023-03-26T07:14:30.522Z,97924.59
2023-03-26T07:17:52.903Z,97914.25
2023-03-26T07:21:01.749Z,97917.66
2023-03-26T07:24:31.484Z,97919.91
2023-03-26T07:28:14.167Z,97920.34
2023-03-26T07:31:42.251Z,97903.31
2023-03-26T07:35:21.455Z,97906.53
2023-03-26T07:38:58.115Z,97901.75
2023-03-26T07:42:50.852Z,97907.13
2023-03-26T07:46:34.454Z,97924.88
2023-03-26T07:49:57.899Z,97918.97
2023-03-26T07:53:18.748Z,97926.19
2023-03-26T07:56:35.253Z,97953.84
2023-03-26T08:00:12.395Z,97962.63
2023-03-26T08:03:27.823Z,97954.97
2023-03-26T08:07:10.538Z,97951.56
2023-03-26T08:11:07.352Z,97967.50
2023-03-26T08:14:42.002Z,97963.59
2023-03-26T08:17:54.354Z,97971.66
2023-03-26T08:21:28.231Z,97966.16
2023-03-26T08:25:02.459Z,97983.22
2023-03-26T08:28:24.605Z,97972.25
2023-03-26T08:31:39.183Z,97981.63
2023-03-26T08:34:41.034Z,98000.16
2023-03-26T08:37:45.223Z,97975.28
2023-03-26T08:41:11.891Z,97993.47
2023-03-26T08:44:51.392Z,97991.31
2023-03-26T08:47:59.337Z,97996.78
2023-03-26T08:51:21.192Z,98015.91
2023-03-26T08:54:57.319Z,98010.44
2023-03-26T08:58:39.183Z,97983.13
2023-03-26T09:02:13.723Z,97996.34
2023-03-26T09:05:21.344Z,97986.56
2023-03-26T09:08:53.595Z,97977.66
2023-03-26T09:15:57.019Z,97990.81
2023-03-26T09:19:39.631Z,97989.31
2023-03-26T09:23:00.352Z,97980.91
2023-03-26T09:26:41.537Z,97991.06
2023-03-26T09:30:22.700Z,97997.47
2023-03-26T09:33:52.188Z,97980.91
2023-03-26T09:37:22.552Z,97987.91
2023-03-26T09:40:53.156Z,97993.50
2023-03-26T09:44:00.975Z,97996.69
2023-03-26T09:47:23.185Z,97991.94
2023-03-26T09:51:03.711Z,97992.34
2023-03-26T09:54:44.319Z,97985.56
2023-03-26T09:58:11.299Z,97989.94
2023-03-26T10:01:29.243Z,97991.75
2023-03-26T10:04:53.500Z,97982.19
2023-03-26T10:08:06.707Z,97981.56
2023-03-26T10:11:32.578Z,97973.66
2023-03-26T10:14:53.777Z,97986.31
2023-03-26T10:18:46.748Z,97975.47
2023-03-26T10:26:08.480Z,97990.66
2023-03-26T10:29:30.833Z,98005.97
2023-03-26T10:32:46.590Z,97984.06
2023-03-26T10:36:30.893Z,97973.69
2023-03-26T10:39:46.317Z,97976.88
2023-03-26T10:43:29.328Z,97974.56
2023-03-26T10:46:57.612Z,97980.03
2023-03-26T10:50:49.677Z,97972.59
2023-03-26T10:54:21.241Z,97972.00
2023-03-26T10:57:52.367Z,97981.97
2023-03-26T11:01:24.024Z,97970.84
2023-03-26T11:05:04.218Z,97960.88
2023-03-26T11:08:31.840Z,97971.59
2023-03-26T11:12:27.888Z,97969.41
2023-03-26T11:15:38.098Z,97954.94
2023-03-26T11:19:04.408Z,97946.38
2023-03-26T11:22:34.789Z,97953.22
2023-03-26T11:26:03.866Z,97942.78
2023-03-26T11:33:07.678Z,97961.94
2023-03-26T11:36:14.191Z,97950.91
2023-03-26T11:39:40.318Z,97941.06
2023-03-26T11:42:43.944Z,97942.44
2023-03-26T11:45:48.538Z,97941.28
2023-03-26T11:49:03.262Z,97921.94
2023-03-26T11:52:12.387Z,97922.94
2023-03-26T11:55:16.948Z,97915.63
2023-03-26T11:58:31.074Z,97924.50
2023-03-26T12:01:57.139Z,97911.00
2023-03-26T12:05:21.320Z,97903.75
2023-03-26T12:08:32.507Z,97894.28
2023-03-26T12:11:35.824Z,97880.38
2023-03-26T12:14:42.826Z,97896.56
2023-03-26T12:17:47.165Z,97880.63
2023-03-26T12:24:39.328Z,97856.59
2023-03-26T12:27:52.854Z,97858.47
2023-03-26T12:31:19.054Z,97856.13
2023-03-26T12:34:36.592Z,97857.16
2023-03-26T12:37:44.622Z,97859.66
2023-03-26T12:40:46.958Z,97875.28
2023-03-26T12:44:55.725Z,97885.97
2023-03-26T12:48:04.039Z,97923.66
2023-03-26T12:51:31.576Z,97904.53
2023-03-26T12:54:56.386Z,97885.72
2023-03-26T12:58:26.150Z,97875.22
2023-03-26T13:01:46.264Z,97849.94
2023-03-26T13:05:21.237Z,97844.47
2023-03-26T13:09:01.064Z,97836.78
2023-03-26T13:12:21.042Z,97829.91
2023-03-26T13:15:38.572Z,97842.63
2023-03-26T13:19:21.387Z,97843.38
2023-03-26T13:22:29.911Z,97825.44
2023-03-26T13:25:53.215Z,97831.41
2023-03-26T13:29:04.248Z,97826.72
2023-03-26T13:32:18.159Z,97834.97
2023-03-26T13:35:45.669Z,97847.22
2023-03-26T13:39:03.177Z,97841.47
2023-03-26T13:42:23.521Z,97873.81
2023-03-26T13:45:58.418Z,97887.47
2023-03-26T13:49:45.829Z,97906.88
2023-03-26T13:52:52.994Z,97922.56
2023-03-26T13:55:59.110Z,97931.97
2023-03-26T13:59:16.969Z,97907.81
2023-03-26T14:02:24.108Z,97917.41
2023-03-26T14:05:37.724Z,97912.81
2023-03-26T14:08:45.989Z,97935.00
2023-03-26T14:12:00.237Z,97960.94
2023-03-26T14:15:10.799Z,97944.78
2023-03-26T14:18:56.642Z,97974.72
2023-03-26T14:22:27.430Z,97975.91
2023-03-26T14:25:38.317Z,97997.06
2023-03-26T14:29:09.800Z,97998.19
2023-03-26T14:32:25.575Z,97991.34
2023-03-26T14:35:49.934Z,97973.97
2023-03-26T14:39:12.546Z,97950.38
2023-03-26T14:42:14.646Z,97937.13
2023-03-26T14:45:42.677Z,97936.56
2023-03-26T14:52:45.366Z,97928.28
2023-03-26T14:56:19.510Z,97943.16
2023-03-26T14:59:51.584Z,97957.41
2023-03-26T15:03:25.970Z,97949.00
2023-03-26T15:07:07.369Z,97973.75
2023-03-26T15:10:53.738Z,97969.28
2023-03-26T15:14:33.148Z,98001.44
2023-03-26T15:18:21.632Z,97998.84
2023-03-26T15:21:45.976Z,97998.72
2023-03-26T15:24:56.391Z,97996.38
2023-03-26T15:28:32.290Z,97981.38
2023-03-26T15:31:40.937Z,97984.84
2023-03-26T15:35:06.915Z,97988.09
2023-03-26T15:38:38.482Z,97976.50
2023-03-26T15:42:18.180Z,97976.06
2023-03-26T15:45:57.046Z,97968.25
2023-03-26T15:49:36.307Z,97980.69
2023-03-26T15:53:02.893Z,97961.75
2023-03-26T15:56:19.471Z,97973.53
2023-03-26T16:00:15.349Z,97966.34
2023-03-26T16:03:48.297Z,97973.19
2023-03-26T16:06:59.092Z,97975.66
2023-03-26T16:10:28.498Z,97976.00
2023-03-26T16:13:34.519Z,97978.91
2023-03-26T16:16:54.791Z,97970.59
2023-03-26T16:20:38.586Z,97974.97
2023-03-26T16:23:47.693Z,97986.97
2023-03-26T16:26:52.359Z,97975.53
2023-03-26T16:30:15.901Z,97981.38
2023-03-26T16:33:21.158Z,97974.63
2023-03-26T16:36:36.829Z,97956.84
2023-03-26T16:39:44.247Z,97981.16
2023-03-26T16:42:55.045Z,97966.13
2023-03-26T16:46:09.585Z,97971.06
2023-03-26T16:49:47.613Z,97971.97
2023-03-26T16:53:42.708Z,97983.28
2023-03-26T16:57:00.685Z,97983.28
2023-03-26T17:00:40.545Z,97981.28
2023-03-26T17:03:54.043Z,97979.91
2023-03-26T17:07:03.382Z,97993.50
2023-03-26T17:10:31.876Z,97980.25
2023-03-26T17:14:17.853Z,97982.72
2023-03-26T17:17:27.655Z,97993.91
2023-03-26T17:21:14.540Z,98006.38
2023-03-26T17:24:38.889Z,97998.88
2023-03-26T17:28:24.439Z,97999.88
2023-03-26T17:31:53.044Z,98004.34
2023-03-26T17:35:00.631Z,98018.34
2023-03-26T17:38:15.663Z,98019.09
2023-03-26T17:45:20.530Z,98026.38
2023-03-26T17:48:28.245Z,98034.44
2023-03-26T17:51:40.811Z,98031.19
2023-03-26T17:54:49.148Z,98033.72
2023-03-26T17:58:06.179Z,98045.72
2023-03-26T18:01:19.836Z,98046.50
2023-03-26T18:04:39.863Z,98046.84
2023-03-26T18:08:13.826Z,98040.91
2023-03-26T18:11:41.196Z,98046.13
2023-03-26T18:14:57.347Z,98031.88
2023-03-26T18:18:10.945Z,98049.69
2023-03-26T18:21:23.709Z,98038.72
2023-03-26T18:24:40.391Z,98049.94
2023-03-26T18:27:42.253Z,98041.66
2023-03-26T18:30:55.286Z,98039.06
2023-03-26T18:34:24.406Z,98040.25
2023-03-26T18:41:23.856Z,98021.88
2023-03-26T18:44:25.615Z,98031.19
2023-03-26T18:47:29.712Z,98025.47
2023-03-26T18:50:38.734Z,98005.84
2023-03-26T18:53:51.481Z,97982.06
2023-03-26T18:56:53.125Z,98001.81
2023-03-26T19:00:21.260Z,98012.47
2023-03-26T19:03:24.406Z,97992.41
2023-03-26T19:06:29.000Z,97999.38
2023-03-26T19:09:32.448Z,98004.97
2023-03-26T19:12:35.747Z,98009.47
2023-03-26T19:15:41.245Z,97998.38
2023-03-26T19:18:50.402Z,97976.41
2023-03-26T19:21:52.848Z,97986.59
2023-03-26T19:25:04.620Z,97992.34
2023-03-26T19:28:15.330Z,97993.66
2023-03-26T19:31:36.519Z,97968.34
2023-03-26T19:34:41.612Z,98000.63
2023-03-26T19:38:41.331Z,97996.25
2023-03-26T19:41:51.572Z,98000.06
2023-03-26T19:44:56.330Z,98000.19
2023-03-26T19:48:14.477Z,97995.72
2023-03-26T19:51:37.305Z,97996.41
2023-03-26T19:58:31.091Z,97973.19
2023-03-26T20:01:33.319Z,97986.44
2023-03-26T20:04:34.998Z,97973.97
2023-03-26T20:07:39.597Z,97983.47
2023-03-26T20:10:43.072Z,98003.88
2023-03-26T20:13:48.759Z,97993.34
2023-03-26T20:16:51.691Z,97987.09
2023-03-26T20:19:54.249Z,97995.72
2023-03-26T20:22:56.630Z,97991.13
2023-03-26T20:25:58.410Z,97999.75
2023-03-26T20:29:00.124Z,97995.72
2023-03-26T20:32:09.292Z,98013.41
2023-03-26T20:35:35.475Z,98004.66
2023-03-26T20:38:40.165Z,98003.31
2023-03-26T20:41:47.582Z,98012.50
2023-03-26T20:45:02.437Z,98024.81
2023-03-26T20:48:04.049Z,98012.84
2023-03-26T20:51:13.956Z,98014.31
2023-03-26T20:54:24.586Z,98019.09
2023-03-26T20:57:26.364Z,98004.66
2023-03-26T21:03:46.666Z,98010.91
2023-03-26T21:06:49.148Z,98021.47
2023-03-26T21:09:50.948Z,98018.19
2023-03-26T21:13:34.846Z,98018.19
2023-03-26T21:16:37.298Z,98001.13
2023-03-26T21:19:39.178Z,98029.59
2023-03-26T21:23:06.679Z,98039.56
2023-03-26T21:26:08.126Z,98033.63
2023-03-26T21:29:13.906Z,98044.72
2023-03-26T21:32:15.695Z,98034.50
2023-03-26T21:35:18.166Z,98028.88
2023-03-26T21:38:23.886Z,98039.75
2023-03-26T21:42:05.180Z,98038.06
2023-03-26T21:45:08.996Z,98046.22
2023-03-26T21:48:16.125Z,98044.34
2023-03-26T21:51:18.462Z,98046.69
2023-03-26T21:54:27.977Z,98047.81
2023-03-26T21:58:15.179Z,98050.38
2023-03-26T22:01:38.600Z,98054.94
2023-03-26T22:04:51.866Z,98050.13
2023-03-26T22:07:59.651Z,98051.56
2023-03-26T22:11:01.413Z,98060.72
2023-03-26T22:14:09.368Z,98073.06
2023-03-26T22:17:10.946Z,98073.06
2023-03-26T22:20:15.483Z,98057.31
2023-03-26T22:23:18.107Z,98083.66
2023-03-26T22:26:24.603Z,98088.78
2023-03-26T22:29:27.314Z,98085.22
2023-03-26T22:32:35.121Z,98107.50
2023-03-26T22:35:38.538Z,98104.06
2023-03-26T22:38:42.889Z,98119.59
2023-03-26T22:41:45.409Z,98124.84
2023-03-26T22:44:46.879Z,98128.94
2023-03-26T22:47:48.631Z,98134.19
2023-03-26T22:51:08.087Z,98142.09
2023-03-26T22:54:09.727Z,98156.16
2023-03-26T22:57:14.965Z,98166.00
2023-03-26T23:00:25.442Z,98166.66
2023-03-26T23:03:35.276Z,98166.06
2023-03-26T23:06:37.454Z,98170.78
2023-03-26T23:09:39.033Z,98176.00
2023-03-26T23:13:06.770Z,98171.69
2023-03-26T23:16:10.061Z,98175.81
2023-03-26T23:19:12.232Z,98179.28
2023-03-26T23:22:26.019Z,98192.56
2023-03-26T23:25:28.445Z,98198.53
2023-03-26T23:28:34.086Z,98185.63
2023-03-26T23:31:46.123Z,98185.94
2023-03-26T23:34:56.625Z,98207.41
2023-03-26T23:38:04.225Z,98205.97
2023-03-26T23:41:09.507Z,98223.78
2023-03-26T23:44:14.373Z,98224.25
2023-03-26T23:47:21.085Z,98231.38
2023-03-26T23:50:32.186Z,98237.53
2023-03-26T23:53:36.868Z,98230.44
2023-03-26T23:56:38.472Z,98240.22
2023-03-26T23:59:43.628Z,98246.38
